Time;durP1;ratioP1;P1;durP2;ratioP2;P2;SDS_P1;SDS_P2;PMS_P1;PMS_P2;Temp;Humidity;BMP_temperature;BMP_pressure;BME280_temperature;BME280_humidity;BME280_pressure;Samples;Min_cycle;Max_cycle;Signal;HPM_P1;HPM_P2
2022/04/30 00:01:06;;;;;;;;;36.50;30.00;;;;;11.40;57.30;102035.84;5056142;28;45652;-59
2022/04/30 00:03:31;;;;;;;;;38.00;34.00;;;;;11.26;56.73;102027.50;5056306;28;46007;-58
2022/04/30 00:05:57;;;;;;;;;35.25;27.75;;;;;11.40;57.46;102051.81;5056170;28;45354;-57
2022/04/30 00:08:23;;;;;;;;;36.00;34.50;;;;;11.26;56.89;102032.81;5056792;28;45393;-54
2022/04/30 00:10:50;;;;;;;;;34.75;29.00;;;;;11.24;58.38;102046.19;5056754;28;45378;-56
2022/04/30 00:13:16;;;;;;;;;44.00;34.75;;;;;11.13;58.38;102043.03;5054834;28;48102;-55
2022/04/30 00:15:41;;;;;;;;;37.00;30.50;;;;;11.16;58.65;102049.09;5056192;28;45188;-62
2022/04/30 00:18:08;;;;;;;;;32.75;28.50;;;;;11.12;58.98;102046.63;5055324;28;45330;-57
2022/04/30 00:20:36;;;;;;;;;31.75;28.00;;;;;11.14;58.90;102042.97;5056342;28;45567;-55
2022/04/30 00:23:02;;;;;;;;;40.25;32.50;;;;;11.18;58.71;102051.72;5056114;28;46439;-59
2022/04/30 00:25:28;;;;;;;;;29.75;27.25;;;;;11.04;59.11;102046.88;5054805;28;45424;-57
2022/04/30 00:27:53;;;;;;;;;34.25;34.00;;;;;10.91;60.72;102043.75;5056429;27;45353;-56
2022/04/30 00:30:18;;;;;;;;;37.75;31.50;;;;;10.80;61.04;102042.38;5055321;27;45297;-56
2022/04/30 00:32:44;;;;;;;;;35.00;33.75;;;;;10.87;60.37;102046.59;5054873;28;46747;-58
2022/04/30 00:35:09;;;;;;;;;34.75;32.75;;;;;10.90;59.91;102047.34;5054583;27;46070;-59
2022/04/30 00:37:35;;;;;;;;;40.50;34.25;;;;;10.97;60.26;102058.69;5056177;28;45394;-57
2022/04/30 00:40:02;;;;;;;;;35.00;33.25;;;;;10.99;59.84;102061.28;5056285;27;45615;-59
2022/04/30 00:42:28;;;;;;;;;32.25;30.00;;;;;10.92;60.29;102058.81;5055187;27;46135;-58
2022/04/30 00:44:53;;;;;;;;;37.50;35.50;;;;;10.86;61.15;102055.50;5055339;28;45307;-56
2022/04/30 00:47:19;;;;;;;;;36.00;30.25;;;;;10.89;60.31;102055.41;5055558;27;45373;-54
2022/04/30 00:49:47;;;;;;;;;34.25;30.00;;;;;10.90;59.40;102051.81;5055969;28;45319;-57
2022/04/30 00:52:15;;;;;;;;;39.25;33.25;;;;;10.89;59.98;102050.94;5055925;27;45522;-57
2022/04/30 00:54:43;;;;;;;;;36.00;32.75;;;;;10.77;61.78;102062.00;5055882;28;45409;-55
2022/04/30 00:57:11;;;;;;;;;38.25;32.00;;;;;10.71;62.83;102064.00;5056074;28;45761;-56
2022/04/30 00:59:40;;;;;;;;;34.75;27.00;;;;;10.62;62.15;102060.72;5056405;28;45686;-60
2022/04/30 01:02:09;;;;;;;;;38.00;28.25;;;;;10.64;61.68;102056.22;5055590;28;45400;-59
2022/04/30 01:04:35;;;;;;;;;40.25;37.00;;;;;10.67;61.19;102054.38;5055790;28;45312;-61
2022/04/30 01:07:08;;;;;;;;;47.00;34.50;;;;;10.75;61.16;102052.34;5055962;28;45364;-59
2022/04/30 01:09:39;;;;;;;;;37.50;32.00;;;;;10.79;61.78;102045.97;5056509;28;45429;-58
2022/04/30 01:12:10;;;;;;;;;37.00;32.25;;;;;10.63;61.42;102027.88;5056199;28;45929;-55
2022/04/30 01:14:37;;;;;;;;;39.75;31.75;;;;;10.68;62.99;102051.69;5055607;28;45436;-57
2022/04/30 01:17:05;;;;;;;;;38.25;28.00;;;;;10.48;63.35;102032.84;5056062;28;45275;-54
2022/04/30 01:19:39;;;;;;;;;39.00;34.50;;;;;10.51;62.29;102022.94;5054248;28;45438;-53
2022/04/30 01:22:29;;;;;;;;;30.75;28.25;;;;;10.60;62.45;102032.44;5055248;28;45944;-53
2022/04/30 01:25:00;;;;;;;;;33.00;31.50;;;;;10.60;62.42;102027.97;5035267;28;45326;-52
2022/04/30 01:27:26;;;;;;;;;36.25;28.00;;;;;10.56;62.16;102018.38;5055462;28;45330;-53
2022/04/30 01:29:58;;;;;;;;;35.25;30.50;;;;;10.59;62.47;102031.56;5054273;28;45341;-60
2022/04/30 01:38:03;;;;;;;;;34.50;30.00;;;;;10.62;61.95;102039.44;5055561;28;45424;-56
2022/04/30 01:40:31;;;;;;;;;44.00;32.50;;;;;10.66;62.46;102032.22;5055856;28;45424;-58
2022/04/30 01:43:00;;;;;;;;;36.00;32.00;;;;;10.67;62.47;102030.41;5071128;27;46996;-59
2022/04/30 01:45:28;;;;;;;;;37.25;30.00;;;;;10.64;62.80;102023.41;5071056;27;45504;-56
2022/04/30 01:47:56;;;;;;;;;45.25;37.00;;;;;10.68;63.26;102024.16;5055235;28;45376;-55
2022/04/30 01:50:21;;;;;;;;;39.00;33.50;;;;;10.55;63.81;102016.63;5055363;28;45894;-52
2022/04/30 01:52:47;;;;;;;;;29.00;25.50;;;;;10.60;62.85;102017.34;5055111;28;45335;-52
2022/04/30 01:55:13;;;;;;;;;43.50;33.00;;;;;10.70;61.98;102017.03;5041538;28;45394;-53
2022/04/30 01:57:39;;;;;;;;;34.75;32.50;;;;;10.68;63.37;102014.44;5058520;28;45347;-55
2022/04/30 02:00:08;;;;;;;;;45.25;33.00;;;;;10.63;62.83;102011.91;5058668;28;45556;-52
2022/04/30 02:02:37;;;;;;;;;25.50;11.75;;;;;10.60;64.00;102017.34;5058455;27;46079;-53
2022/04/30 02:05:07;;;;;;;;;37.75;28.00;;;;;10.51;63.20;102014.97;5058542;28;45275;-53
2022/04/30 02:07:38;;;;;;;;;31.00;27.75;;;;;10.44;63.40;101999.28;5058448;27;45519;-53
2022/04/30 02:10:06;;;;;;;;;30.75;29.75;;;;;10.43;63.71;102003.75;5072477;27;45447;-58
2022/04/30 02:12:33;;;;;;;;;40.00;32.25;;;;;10.43;64.31;102009.06;5073493;28;48300;-60
2022/04/30 02:15:00;;;;;;;;;43.50;36.00;;;;;10.36;65.08;102002.19;5058615;28;45469;-57
2022/04/30 02:17:26;;;;;;;;;37.75;32.25;;;;;10.38;64.11;102000.34;5057875;27;45346;-55
2022/04/30 02:22:40;;;;;;;;;41.50;36.25;;;;;10.32;64.29;102006.75;5058006;28;45369;-60
2022/04/30 02:25:10;;;;;;;;;36.50;30.00;;;;;10.34;64.12;102006.69;5056752;28;45449;-58
2022/04/30 02:27:40;;;;;;;;;36.00;26.00;;;;;10.29;64.83;102009.50;5068162;28;45293;-59
2022/04/30 02:30:08;;;;;;;;;36.00;32.25;;;;;10.23;64.53;102011.47;5058139;28;45502;-55
2022/04/30 02:32:46;;;;;;;;;38.75;33.50;;;;;10.17;64.06;101985.94;5056609;28;45594;-58
2022/04/30 02:35:14;;;;;;;;;31.25;25.25;;;;;10.26;63.94;101995.41;5057616;27;45333;-51
2022/04/30 02:37:41;;;;;;;;;40.50;36.50;;;;;10.30;64.19;102007.72;5057840;27;45447;-54
2022/04/30 02:40:07;;;;;;;;;41.75;36.75;;;;;10.26;65.08;102003.41;5057838;27;45365;-56
2022/04/30 02:42:33;;;;;;;;;34.25;29.25;;;;;10.15;65.50;102013.47;5056360;27;47294;-58
2022/04/30 02:44:59;;;;;;;;;39.00;32.75;;;;;10.17;65.24;102009.00;5036063;28;45553;-59
2022/04/30 02:47:25;;;;;;;;;41.00;31.25;;;;;10.19;63.87;102005.38;5037487;28;45433;-56
2022/04/30 02:49:50;;;;;;;;;32.25;30.75;;;;;10.15;65.15;102000.19;5038015;28;45252;-55
2022/04/30 02:52:16;;;;;;;;;35.00;28.50;;;;;10.13;65.10;102005.53;5052947;28;45287;-54
2022/04/30 02:54:41;;;;;;;;;36.75;33.75;;;;;10.07;65.55;101989.81;5036094;28;45335;-54
2022/04/30 02:57:06;;;;;;;;;41.50;31.00;;;;;10.08;65.77;101990.66;5036135;28;45281;-62
2022/04/30 03:02:16;;;;;;;;;34.00;29.50;;;;;10.12;65.62;101989.66;5037260;28;45294;-56
2022/04/30 03:04:41;;;;;;;;;33.50;30.00;;;;;10.04;65.49;101981.94;5036103;28;45243;-58
2022/04/30 03:07:11;;;;;;;;;41.00;35.75;;;;;10.00;66.14;101993.56;5037264;28;45414;-51
2022/04/30 03:09:39;;;;;;;;;39.00;33.25;;;;;10.03;66.39;101994.34;5037646;28;45373;-57
2022/04/30 03:12:08;;;;;;;;;32.75;29.75;;;;;10.05;65.86;101997.81;5036035;28;47856;-60
2022/04/30 03:14:34;;;;;;;;;31.00;29.50;;;;;10.03;65.32;101994.34;5037689;28;45312;-57
2022/04/30 03:22:28;;;;;;;;;40.50;34.50;;;;;9.96;65.67;101986.59;5056995;28;45863;-56
2022/04/30 03:24:53;;;;;;;;;45.50;34.00;;;;;9.98;65.61;101975.00;5057035;28;45311;-60
2022/04/30 03:27:18;;;;;;;;;32.00;31.25;;;;;10.01;64.47;101969.59;5055648;27;45664;-60
2022/04/30 03:29:46;;;;;;;;;36.00;33.25;;;;;10.04;65.35;101979.28;5057258;28;45540;-61
2022/04/30 03:32:12;;;;;;;;;36.75;28.25;;;;;9.91;66.26;101976.13;5056671;28;45624;-56
2022/04/30 03:34:37;;;;;;;;;39.00;33.75;;;;;9.89;66.58;101985.91;5057116;28;45456;-58
2022/04/30 03:37:03;;;;;;;;;36.00;28.75;;;;;9.95;66.41;101985.75;5057686;28;45390;-60
2022/04/30 03:39:28;;;;;;;;;42.00;30.75;;;;;9.95;65.86;101979.56;5057328;27;45432;-57
2022/04/30 03:41:54;;;;;;;;;34.25;29.25;;;;;10.01;65.52;101980.22;5056702;28;45476;-59
2022/04/30 03:44:20;;;;;;;;;39.75;29.75;;;;;10.04;66.05;101980.16;5056617;28;45488;-58
2022/04/30 03:46:46;;;;;;;;;38.75;31.00;;;;;10.05;65.49;101981.88;5056848;28;45440;-57
2022/04/30 03:49:12;;;;;;;;;44.00;35.25;;;;;10.04;65.96;101988.13;5057308;28;45240;-54
2022/04/30 03:51:37;;;;;;;;;37.00;33.75;;;;;9.99;65.82;101990.03;5056521;28;46058;-61
2022/04/30 03:54:03;;;;;;;;;33.25;30.25;;;;;9.95;66.41;101974.25;5057017;27;45286;-55
2022/04/30 03:56:29;;;;;;;;;36.00;32.50;;;;;9.91;65.84;101973.47;5057168;27;45305;-56
2022/04/30 03:58:54;;;;;;;;;44.00;33.50;;;;;9.89;67.33;101975.28;5057246;28;45330;-60
2022/04/30 04:01:21;;;;;;;;;25.75;20.00;;;;;9.97;66.67;101983.91;5056326;28;46364;-60
2022/04/30 04:03:48;;;;;;;;;31.50;28.00;;;;;9.91;67.01;101984.09;5056691;27;45468;-60
2022/04/30 04:06:15;;;;;;;;;36.75;29.75;;;;;9.87;67.23;101987.75;5056590;28;45412;-60
2022/04/30 04:08:40;;;;;;;;;32.00;29.50;;;;;9.90;66.50;101987.69;5055595;27;45454;-61
2022/04/30 04:11:10;;;;;;;;;45.00;28.75;;;;;9.95;66.27;101991.06;5056735;28;46094;-56
2022/04/30 04:19:05;;;;;;;;;32.75;30.25;;;;;10.04;65.53;101982.81;5056858;28;45225;-60
2022/04/30 04:21:30;;;;;;;;;38.75;33.00;;;;;10.10;66.22;101983.50;5055675;28;46281;-58
2022/04/30 04:26:39;;;;;;;;;35.50;33.25;;;;;10.07;65.88;101983.63;5056594;28;45444;-54
2022/04/30 04:29:05;;;;;;;;;48.00;37.50;;;;;10.00;66.05;101991.78;5056974;28;45634;-55
2022/04/30 04:31:30;;;;;;;;;45.75;35.00;;;;;10.01;66.39;101992.63;5056445;27;45544;-53
2022/04/30 04:33:56;;;;;;;;;41.50;36.00;;;;;10.00;66.28;101991.78;5056098;28;45460;-58
2022/04/30 04:36:21;;;;;;;;;36.00;32.75;;;;;9.95;66.00;101980.44;5056405;27;45423;-57
2022/04/30 04:38:47;;;;;;;;;34.50;25.50;;;;;10.03;66.25;101993.47;5071889;28;45587;-58
2022/04/30 04:41:12;;;;;;;;;41.25;30.25;;;;;9.97;66.72;101985.69;5055928;28;45960;-55
2022/04/30 04:43:38;;;;;;;;;34.00;29.50;;;;;9.96;66.50;101987.47;5056332;28;45362;-60
2022/04/30 04:46:04;;;;;;;;;44.75;31.75;;;;;10.03;65.65;101996.16;5056089;28;45436;-55
2022/04/30 04:48:31;;;;;;;;;43.75;38.75;;;;;10.05;66.56;102000.50;5056166;28;45558;-63
2022/04/30 04:50:57;;;;;;;;;39.25;32.75;;;;;10.07;66.33;102000.44;5055927;27;45341;-58
2022/04/30 04:53:22;;;;;;;;;43.50;35.50;;;;;10.10;65.79;101989.69;5054359;28;45343;-62
2022/04/30 04:55:48;;;;;;;;;42.00;38.25;;;;;10.18;65.85;102006.28;5055881;28;45286;-59
2022/04/30 04:58:14;;;;;;;;;43.50;35.25;;;;;10.16;66.34;102001.94;5056831;28;45280;-56
2022/04/30 05:00:39;;;;;;;;;43.00;37.50;;;;;10.15;66.68;102009.00;5054995;28;46689;-56
2022/04/30 05:03:05;;;;;;;;;35.75;34.50;;;;;10.11;66.79;102012.69;5054663;28;45250;-60
2022/04/30 05:05:30;;;;;;;;;43.75;35.00;;;;;10.20;66.27;102028.38;5055864;28;45502;-59
2022/04/30 05:07:56;;;;;;;;;41.25;35.50;;;;;10.28;66.65;102014.84;5056265;27;45489;-59
2022/04/30 05:10:21;;;;;;;;;42.25;34.25;;;;;10.26;66.06;102014.91;5054216;28;47971;-56
2022/04/30 05:12:47;;;;;;;;;48.25;38.25;;;;;10.26;66.45;102022.00;5071214;28;45728;-61
2022/04/30 05:15:13;;;;;;;;;41.75;37.50;;;;;10.14;66.94;102023.22;5055582;28;45359;-58
2022/04/30 05:17:38;;;;;;;;;45.25;37.75;;;;;10.00;67.55;102015.69;5055888;28;45416;-58
2022/04/30 05:20:05;;;;;;;;;37.75;34.00;;;;;9.94;67.85;102015.91;5055312;28;45309;-54
2022/04/30 05:22:30;;;;;;;;;40.25;36.25;;;;;9.99;68.32;102024.59;5055491;28;45262;-59
2022/04/30 05:24:56;;;;;;;;;44.25;33.50;;;;;10.05;67.30;102021.75;5055658;28;45232;-58
2022/04/30 05:27:21;;;;;;;;;45.75;38.25;;;;;10.11;67.72;102027.78;5071451;28;45382;-53
2022/04/30 05:29:47;;;;;;;;;41.75;36.00;;;;;10.11;67.14;102020.69;5058817;28;45804;-56
2022/04/30 05:32:12;;;;;;;;;43.75;36.75;;;;;10.13;66.92;102032.13;5058002;28;45833;-54
2022/04/30 05:34:39;;;;;;;;;46.75;34.00;;;;;10.10;67.06;102031.38;5059102;27;45370;-57
2022/04/30 05:37:04;;;;;;;;;37.50;37.25;;;;;10.18;66.76;102040.84;5059347;28;45408;-51
2022/04/30 05:39:29;;;;;;;;;48.00;39.00;;;;;10.24;66.25;102040.69;5058614;28;45272;-56
2022/04/30 05:41:55;;;;;;;;;43.50;35.75;;;;;10.38;65.90;102047.34;5058975;28;45425;-54
2022/04/30 05:44:20;;;;;;;;;39.75;33.50;;;;;10.42;65.25;102041.03;5058924;28;45366;-58
2022/04/30 05:46:46;;;;;;;;;52.00;39.75;;;;;10.41;65.29;102045.44;5058988;28;45587;-58
2022/04/30 05:49:11;;;;;;;;;45.75;35.75;;;;;10.49;65.61;102048.75;5059038;28;46334;-59
2022/04/30 05:51:36;;;;;;;;;44.75;35.25;;;;;10.44;65.29;102040.06;5058702;28;45414;-59
2022/04/30 05:54:02;;;;;;;;;51.50;38.75;;;;;10.40;65.60;102045.50;5058599;27;45321;-60
2022/04/30 05:56:27;;;;;;;;;40.75;36.75;;;;;10.41;65.56;102045.44;5058021;28;45382;-58
2022/04/30 05:58:53;;;;;;;;;42.50;35.00;;;;;10.46;65.20;102050.63;5058580;27;47167;-57
2022/04/30 06:01:19;;;;;;;;;37.25;35.75;;;;;10.49;64.52;102046.09;5052864;27;45272;-60
2022/04/30 06:03:44;;;;;;;;;35.25;32.00;;;;;10.53;64.74;102042.38;5036734;28;45504;-56
2022/04/30 06:06:10;;;;;;;;;40.25;34.00;;;;;10.59;64.76;102052.84;5038728;28;45371;-57
2022/04/30 06:08:35;;;;;;;;;45.75;36.50;;;;;10.59;63.62;102047.53;5037756;28;45574;-59
2022/04/30 06:11:01;;;;;;;;;36.75;34.00;;;;;10.64;63.78;102056.22;5037754;28;45279;-61
2022/04/30 06:13:27;;;;;;;;;48.75;39.00;;;;;10.63;63.44;102051.81;5038058;28;45190;-58
2022/04/30 06:15:52;;;;;;;;;32.50;32.50;;;;;10.67;64.10;102059.69;5038425;27;45161;-58
2022/04/30 06:18:20;;;;;;;;;44.75;39.75;;;;;10.58;63.82;102052.91;5056811;27;46288;-55
2022/04/30 06:20:45;;;;;;;;;51.00;41.00;;;;;10.59;63.54;102074.13;5057984;28;45422;-58
2022/04/30 06:23:15;;;;;;;;;42.00;34.75;;;;;10.63;63.54;102075.75;5073815;28;45438;-55
2022/04/30 06:25:41;;;;;;;;;44.00;37.50;;;;;10.69;63.36;102065.84;5058576;27;45339;-60
2022/04/30 06:28:08;;;;;;;;;46.25;39.00;;;;;10.70;63.72;102073.78;5056506;28;45332;-60
2022/04/30 06:30:35;;;;;;;;;48.75;32.75;;;;;10.69;64.24;102073.84;5058239;28;45239;-56
2022/04/30 06:33:01;;;;;;;;;40.75;35.25;;;;;10.66;63.72;102063.28;5056614;28;45481;-60
2022/04/30 06:35:26;;;;;;;;;40.75;31.75;;;;;10.75;63.14;102074.50;5056325;28;45664;-60
2022/04/30 06:37:52;;;;;;;;;40.00;35.50;;;;;10.87;63.28;102079.41;5056479;28;45512;-60
2022/04/30 06:40:18;;;;;;;;;41.00;37.00;;;;;11.02;62.69;102071.81;5054500;28;45505;-55
2022/04/30 06:42:47;;;;;;;;;31.00;31.00;;;;;11.14;62.19;102077.59;5056136;28;45417;-62
2022/04/30 06:45:13;;;;;;;;;36.50;33.75;;;;;11.23;61.60;102069.28;5056734;27;45555;-64
2022/04/30 06:47:40;;;;;;;;;31.00;27.50;;;;;11.33;61.48;102079.59;5057590;27;45315;-56
2022/04/30 06:50:07;;;;;;;;;39.75;34.00;;;;;11.43;60.72;102075.69;5072998;27;45353;-56
2022/04/30 06:52:32;;;;;;;;;38.25;33.50;;;;;11.44;60.33;102072.09;5039538;28;45356;-57
2022/04/30 06:57:43;;;;;;;;;30.50;28.75;;;;;11.41;60.43;102085.53;5057548;28;45282;-55
2022/04/30 07:02:56;;;;;;;;;34.75;29.50;;;;;11.29;60.19;102080.63;5057188;28;45341;-56
2022/04/30 07:05:22;;;;;;;;;36.50;29.75;;;;;11.22;60.30;102086.19;5073276;28;45498;-53
2022/04/30 07:07:48;;;;;;;;;41.00;37.00;;;;;11.21;59.93;102097.78;5057150;27;45335;-60
2022/04/30 07:10:13;;;;;;;;;38.75;35.50;;;;;11.23;60.17;102077.28;5056244;28;45282;-63
2022/04/30 07:12:38;;;;;;;;;31.00;30.25;;;;;11.36;59.99;102085.72;5057892;28;45280;-57
2022/04/30 07:15:04;;;;;;;;;28.50;26.75;;;;;11.52;59.54;102104.66;5057474;28;45223;-56
2022/04/30 07:17:30;;;;;;;;;36.25;30.25;;;;;11.62;59.24;102094.56;5057056;28;45410;-60
2022/04/30 07:19:55;;;;;;;;;31.25;28.50;;;;;11.68;58.92;102100.50;5057133;28;45229;-55
2022/04/30 07:22:21;;;;;;;;;28.25;27.75;;;;;11.71;58.82;102096.88;5057380;28;45237;-61
2022/04/30 07:24:47;;;;;;;;;35.00;30.00;;;;;11.79;58.74;102108.16;5057493;28;45410;-61
2022/04/30 07:27:12;;;;;;;;;38.25;31.25;;;;;11.82;58.65;102098.25;5056458;28;45615;-61
2022/04/30 07:29:38;;;;;;;;;34.75;28.25;;;;;11.95;57.76;102108.44;5056844;28;45407;-57
2022/04/30 07:32:07;;;;;;;;;34.25;28.75;;;;;12.01;57.84;102108.22;5057171;28;45507;-59
2022/04/30 07:34:33;;;;;;;;;29.75;27.25;;;;;12.03;57.39;102109.03;5057327;28;45548;-62
2022/04/30 07:36:58;;;;;;;;;31.25;29.50;;;;;12.07;57.43;102107.97;5056874;27;45231;-60
2022/04/30 07:39:24;;;;;;;;;35.75;28.75;;;;;12.14;57.36;102105.97;5057368;28;45168;-59
2022/04/30 07:41:49;;;;;;;;;33.50;30.00;;;;;12.20;56.73;102106.59;5055764;28;45358;-59
2022/04/30 07:44:15;;;;;;;;;37.50;28.00;;;;;12.26;57.17;102109.03;5057643;28;45353;-61
2022/04/30 07:46:40;;;;;;;;;27.50;26.75;;;;;12.31;56.75;102112.38;5056614;28;45453;-63
2022/04/30 07:49:06;;;;;;;;;26.75;25.50;;;;;12.19;56.97;102111.97;5056867;28;45334;-57
2022/04/30 07:51:38;;;;;;;;;27.75;27.50;;;;;12.02;57.50;102116.16;5056673;28;45442;-62
2022/04/30 07:54:04;;;;;;;;;28.00;26.50;;;;;11.93;57.60;102112.97;5057099;27;45312;-60
2022/04/30 07:56:30;;;;;;;;;30.25;26.00;;;;;12.04;57.71;102113.44;5071840;27;47635;-60
2022/04/30 07:58:55;;;;;;;;;38.75;33.50;;;;;12.12;57.42;102100.69;5056059;28;45419;-57
2022/04/30 08:01:21;;;;;;;;;39.75;29.25;;;;;12.27;56.95;102107.22;5056569;27;45397;-61
2022/04/30 08:03:47;;;;;;;;;27.50;25.00;;;;;12.39;56.36;102098.75;5055530;27;45488;-60
2022/04/30 08:06:12;;;;;;;;;31.25;26.50;;;;;12.49;55.77;102107.22;5055844;28;46118;-57
2022/04/30 08:08:38;;;;;;;;;35.75;23.00;;;;;12.44;55.40;102106.56;5056533;28;45437;-54
2022/04/30 08:11:04;;;;;;;;;27.50;23.00;;;;;12.33;55.22;102099.84;5056290;27;45358;-57
2022/04/30 08:13:30;;;;;;;;;26.25;24.75;;;;;12.44;55.05;102109.22;5054811;27;45528;-58
2022/04/30 08:15:56;;;;;;;;;32.50;29.00;;;;;12.54;55.44;102113.28;5056245;28;46389;-57
2022/04/30 08:18:21;;;;;;;;;25.50;24.25;;;;;12.64;55.13;102094.16;5056125;28;45316;-57
2022/04/30 08:20:47;;;;;;;;;33.00;28.00;;;;;12.78;54.66;102104.28;5072293;27;45311;-61
2022/04/30 08:23:13;;;;;;;;;32.25;29.00;;;;;12.86;53.96;102103.94;5056701;28;45528;-60
2022/04/30 08:25:39;;;;;;;;;39.25;30.25;;;;;12.81;54.25;102085.47;5055969;28;45443;-59
2022/04/30 08:28:05;;;;;;;;;31.00;27.00;;;;;13.06;53.55;102093.31;5054545;28;46180;-55
2022/04/30 08:30:32;;;;;;;;;31.50;28.25;;;;;13.33;53.09;102077.06;5056437;28;45263;-57
2022/04/30 08:32:58;;;;;;;;;27.75;26.50;;;;;13.79;52.15;102103.44;5072066;27;45582;-58
2022/04/30 08:35:24;;;;;;;;;29.25;27.75;;;;;14.08;51.18;102098.59;5056188;27;46030;-57
2022/04/30 08:37:50;;;;;;;;;31.00;27.75;;;;;14.21;50.17;102082.81;5056424;28;45468;-55
2022/04/30 08:40:19;;;;;;;;;28.75;27.00;;;;;14.50;50.08;102097.50;5056611;28;45749;-59
2022/04/30 08:42:45;;;;;;;;;26.25;24.00;;;;;14.69;49.54;102106.38;5054895;28;45194;-58
2022/04/30 08:45:12;;;;;;;;;26.00;24.25;;;;;14.78;47.99;102089.84;5054624;28;48202;-59
2022/04/30 08:47:41;;;;;;;;;24.75;21.25;;;;;14.75;48.95;102095.38;5055876;28;45475;-59
2022/04/30 08:50:12;;;;;;;;;32.50;26.25;;;;;14.73;48.48;102087.41;5071210;28;45350;-61
2022/04/30 08:52:38;;;;;;;;;29.75;29.00;;;;;15.02;48.01;102087.75;5056082;27;45512;-58
2022/04/30 08:55:05;;;;;;;;;29.25;25.50;;;;;15.23;48.61;102096.50;5055312;28;45421;-61
2022/04/30 08:57:31;;;;;;;;;24.75;23.00;;;;;15.36;48.01;102073.47;5071404;28;45741;-60
2022/04/30 08:59:58;;;;;;;;;29.00;23.25;;;;;15.72;47.45;102083.22;5054581;28;45495;-58
2022/04/30 09:02:23;;;;;;;;;33.67;25.67;;;;;15.78;46.46;102073.03;5049738;28;45736;-55
2022/04/30 09:04:50;;;;;;;;;26.67;24.67;;;;;16.06;46.86;102076.88;5037343;28;46291;-57
2022/04/30 09:07:24;;;;;;;;;26.00;26.00;;;;;16.45;46.41;102074.66;5039237;28;45287;-60
2022/04/30 09:10:05;;;;;;;;;25.00;22.00;;;;;16.63;44.52;102064.66;5037828;28;45411;-60
2022/04/30 09:12:33;;;;;;;;;27.00;23.33;;;;;16.95;44.20;102056.56;5039023;28;45511;-58
2022/04/30 09:14:59;;;;;;;;;28.33;28.33;;;;;17.36;44.54;102063.00;5039242;28;45450;-57
2022/04/30 09:17:27;;;;;;;;;23.00;21.00;;;;;17.56;41.97;102067.13;5042482;28;45275;-54
2022/04/30 09:19:56;;;;;;;;;23.33;21.67;;;;;17.82;42.07;102053.91;5074873;28;45429;-55
2022/04/30 09:22:33;;;;;;;;;27.33;23.67;;;;;17.99;41.49;102034.88;5058756;28;45413;-58
2022/04/30 09:24:59;;;;;;;;;19.00;14.67;;;;;18.39;41.38;102065.47;5074023;27;45423;-56
2022/04/30 09:27:25;;;;;;;;;26.00;26.00;;;;;18.65;39.00;102053.00;5058673;28;45342;-55
2022/04/30 09:29:51;;;;;;;;;19.00;17.00;;;;;18.67;39.10;102056.44;5057776;28;45385;-58
2022/04/30 09:32:19;;;;;;;;;23.00;21.00;;;;;18.78;38.60;102034.16;5059015;27;45388;-57
2022/04/30 09:37:43;;;;;;;;;16.00;13.67;;;;;19.33;36.22;102052.81;5058706;28;45389;-56
2022/04/30 09:40:14;;;;;;;;;16.33;14.67;;;;;19.55;35.81;102049.50;5058704;28;45732;-56
2022/04/30 09:42:48;;;;;;;;;17.00;15.33;;;;;19.68;34.09;102049.50;5058694;28;45302;-60
2022/04/30 09:45:27;;;;;;;;;15.67;15.67;;;;;19.73;34.12;102061.69;5058206;28;46141;-56
2022/04/30 09:47:54;;;;;;;;;16.00;15.00;;;;;19.91;34.58;102048.69;5057888;28;45231;-54
2022/04/30 09:55:55;;;;;;;;;17.00;16.00;;;;;20.51;32.52;102025.41;5057784;28;45281;-60
2022/04/30 09:58:26;;;;;;;;;14.33;14.33;;;;;20.56;31.05;102034.88;5058947;27;45361;-61
2022/04/30 10:00:58;;;;;;;;;8.33;8.33;;;;;20.48;32.64;102039.16;5057527;27;45404;-61
2022/04/30 10:03:27;;;;;;;;;14.67;12.33;;;;;20.59;31.79;102023.88;5059108;28;45406;-57
2022/04/30 10:05:59;;;;;;;;;11.00;11.00;;;;;20.58;31.86;102035.66;5058656;27;46339;-58
2022/04/30 10:08:27;;;;;;;;;13.67;12.33;;;;;20.65;31.19;102029.78;5058622;27;45268;-56
2022/04/30 10:11:05;;;;;;;;;12.00;12.00;;;;;20.63;32.29;102031.75;5074659;27;45340;-59
2022/04/30 10:14:09;;;;;;;;;18.67;16.33;;;;;20.51;32.59;102028.97;5058798;27;45444;-56
2022/04/30 10:16:35;;;;;;;;;10.00;9.33;;;;;20.30;32.29;102036.81;5042544;28;45440;-61
2022/04/30 10:19:12;;;;;;;;;20.00;14.67;;;;;20.07;31.83;102026.00;5057847;28;45479;-57
2022/04/30 10:21:38;;;;;;;;;22.00;15.00;;;;;19.83;32.18;102031.34;5056737;28;45303;-56
2022/04/30 10:24:06;;;;;;;;;7.33;7.33;;;;;19.52;33.02;102027.22;5058230;28;45456;-61
2022/04/30 10:26:32;;;;;;;;;16.00;11.33;;;;;19.23;32.70;102023.88;5056519;28;45391;-58
2022/04/30 10:28:59;;;;;;;;;18.33;12.33;;;;;18.94;33.68;102025.91;5058030;28;45433;-62
2022/04/30 10:31:25;;;;;;;;;14.33;11.33;;;;;18.71;33.51;102024.75;5058198;28;45427;-58
2022/04/30 10:33:51;;;;;;;;;14.67;12.67;;;;;18.06;34.28;102030.81;5056885;28;45405;-58
2022/04/30 10:36:19;;;;;;;;;15.67;13.67;;;;;17.68;35.34;102019.75;5056506;28;47058;-57
2022/04/30 10:38:59;;;;;;;;;16.33;13.00;;;;;17.58;35.73;102014.13;5058463;28;45361;-58
2022/04/30 10:41:24;;;;;;;;;16.00;13.33;;;;;17.50;36.40;102007.50;5073976;27;45460;-59
2022/04/30 10:43:59;;;;;;;;;17.33;12.67;;;;;17.48;36.74;102012.97;5073875;27;45425;-63
2022/04/30 10:46:26;;;;;;;;;14.67;14.00;;;;;17.29;36.34;102013.22;5073441;27;46651;-58
2022/04/30 10:48:51;;;;;;;;;14.33;13.67;;;;;16.91;37.08;102012.88;5056599;28;45426;-60
2022/04/30 10:51:53;;;;;;;;;9.67;9.67;;;;;16.89;37.21;102014.78;5057845;28;45346;-59
2022/04/30 10:54:22;;;;;;;;;16.33;13.00;;;;;16.89;38.09;102013.91;5036004;28;45532;-58
2022/04/30 10:56:58;;;;;;;;;14.00;14.00;;;;;16.88;37.73;102007.69;5057565;28;45349;-60
2022/04/30 10:59:26;;;;;;;;;13.00;12.33;;;;;16.83;38.36;101992.81;5057933;28;45279;-60
2022/04/30 11:01:51;;;;;;;;;14.33;14.33;;;;;16.93;38.01;102000.22;5073332;28;45295;-57
2022/04/30 11:04:17;;;;;;;;;14.33;14.33;;;;;16.80;38.02;101988.50;5058008;28;45598;-57
2022/04/30 11:06:44;;;;;;;;;20.67;17.33;;;;;16.90;37.96;101983.41;5057656;28;45384;-55
2022/04/30 11:09:09;;;;;;;;;16.33;14.33;;;;;16.84;38.05;102000.78;5057625;28;45360;-61
2022/04/30 11:11:36;;;;;;;;;15.33;10.67;;;;;16.77;36.98;102004.78;5057584;28;45475;-56
2022/04/30 11:14:10;;;;;;;;;19.00;11.00;;;;;16.87;37.20;101997.03;5056455;28;45562;-60
2022/04/30 11:16:42;;;;;;;;;11.67;10.67;;;;;16.97;37.43;101988.31;5056836;28;45494;-61
2022/04/30 11:19:11;;;;;;;;;11.33;10.00;;;;;17.09;36.85;101995.66;5070251;28;45396;-56
2022/04/30 11:21:41;;;;;;;;;10.00;9.00;;;;;16.94;36.23;101995.72;5057505;28;45510;-61
2022/04/30 11:24:08;;;;;;;;;6.33;6.33;;;;;16.75;36.15;101977.13;5057649;27;45513;-56
2022/04/30 11:26:41;;;;;;;;;12.33;10.33;;;;;16.76;36.77;101966.28;5056231;28;45998;-60
2022/04/30 11:29:13;;;;;;;;;7.33;7.33;;;;;17.04;36.47;101970.00;5056806;27;45335;-60
2022/04/30 11:31:42;;;;;;;;;12.00;9.33;;;;;17.21;35.70;101977.91;5055848;28;45386;-59
2022/04/30 11:34:09;;;;;;;;;4.67;4.67;;;;;17.33;35.38;101960.16;5072918;27;45318;-58
2022/04/30 11:36:42;;;;;;;;;6.00;6.00;;;;;17.43;35.18;101963.09;5056712;28;45445;-58
2022/04/30 11:39:12;;;;;;;;;9.33;6.33;;;;;17.43;35.40;101955.88;5071977;28;45354;-59
2022/04/30 11:41:43;;;;;;;;;7.00;7.00;;;;;17.69;35.04;101968.56;5056774;28;45426;-53
2022/04/30 11:44:09;;;;;;;;;6.00;6.00;;;;;17.79;35.02;101965.31;5072488;28;45586;-58
2022/04/30 11:46:45;;;;;;;;;11.67;7.00;;;;;17.85;34.65;101940.72;5056321;28;45400;-62
2022/04/30 11:49:13;;;;;;;;;7.00;6.33;;;;;17.95;33.48;101952.56;5056848;28;45484;-62
2022/04/30 11:51:40;;;;;;;;;9.33;6.67;;;;;18.03;32.87;101944.00;5056728;28;45364;-58